sensor_id;sensor_type;location;lat;lon;timestamp;P1;durP1;ratioP1;P2;durP2;ratioP2
73084;SDS011;62974;49.460;10.892;2022-09-13T04:44:45;68.43;;;65.20;;
73084;SDS011;62974;49.460;10.892;2022-09-13T04:48:31;67.60;;;64.70;;
73084;SDS011;62974;49.460;10.892;2022-09-13T04:56:14;75.47;;;72.30;;
73084;SDS011;62974;49.460;10.892;2022-09-13T06:03:28;78.57;;;74.77;;
73084;SDS011;62974;49.460;10.892;2022-09-13T06:06:53;76.40;;;72.70;;
73084;SDS011;62974;49.460;10.892;2022-09-13T06:14:08;73.73;;;70.03;;
73084;SDS011;62974;49.460;10.892;2022-09-13T06:17:33;77.03;;;73.27;;
73084;SDS011;62974;49.460;10.892;2022-09-13T06:20:17;78.30;;;74.70;;
73084;SDS011;62974;49.460;10.892;2022-09-13T06:27:47;80.87;;;76.77;;
73084;SDS011;62974;49.460;10.892;2022-09-13T06:41:38;79.63;;;75.43;;
73084;SDS011;62974;49.460;10.892;2022-09-13T06:44:36;76.73;;;72.63;;
73084;SDS011;62974;49.460;10.892;2022-09-13T06:48:14;73.40;;;69.80;;
73084;SDS011;62974;49.460;10.892;2022-09-13T06:59:11;79.50;;;75.60;;
73084;SDS011;62974;49.460;10.892;2022-09-13T07:05:55;84.60;;;80.50;;
73084;SDS011;62974;49.460;10.892;2022-09-13T07:11:37;73.60;;;69.80;;
73084;SDS011;62974;49.460;10.892;2022-09-13T08:49:41;74.77;;;71.27;;
73084;SDS011;62974;49.460;10.892;2022-09-13T08:59:20;74.67;;;70.57;;
73084;SDS011;62974;49.460;10.892;2022-09-13T09:20:49;74.53;;;70.93;;
73084;SDS011;62974;49.460;10.892;2022-09-13T09:25:13;74.57;;;71.17;;
73084;SDS011;62974;49.460;10.892;2022-09-13T09:27:58;75.03;;;71.80;;
73084;SDS011;62974;49.460;10.892;2022-09-13T09:30:31;76.20;;;72.90;;
73084;SDS011;62974;49.460;10.892;2022-09-13T09:36:09;74.00;;;70.70;;
73084;SDS011;62974;49.460;10.892;2022-09-13T09:38:46;72.43;;;69.23;;
73084;SDS011;62974;49.460;10.892;2022-09-13T09:41:17;72.30;;;69.13;;
73084;SDS011;62974;49.460;10.892;2022-09-13T09:43:54;65.63;;;62.90;;
73084;SDS011;62974;49.460;10.892;2022-09-13T09:46:30;66.30;;;63.40;;
73084;SDS011;62974;49.460;10.892;2022-09-13T09:49:06;72.47;;;69.47;;
73084;SDS011;62974;49.460;10.892;2022-09-13T09:51:56;73.00;;;69.90;;
73084;SDS011;62974;49.460;10.892;2022-09-13T09:54:26;69.10;;;66.10;;
73084;SDS011;62974;49.460;10.892;2022-09-13T09:56:56;67.73;;;64.83;;
73084;SDS011;62974;49.460;10.892;2022-09-13T09:59:28;67.43;;;64.70;;
73084;SDS011;62974;49.460;10.892;2022-09-13T10:01:57;70.83;;;67.80;;
73084;SDS011;62974;49.460;10.892;2022-09-13T10:30:31;65.97;;;62.80;;
73084;SDS011;62974;49.460;10.892;2022-09-13T10:33:04;69.30;;;66.60;;
73084;SDS011;62974;49.460;10.892;2022-09-13T10:35:38;70.47;;;67.67;;
73084;SDS011;62974;49.460;10.892;2022-09-13T10:38:15;64.80;;;62.27;;
73084;SDS011;62974;49.460;10.892;2022-09-13T10:40:51;68.40;;;65.80;;
73084;SDS011;62974;49.460;10.892;2022-09-13T10:43:20;62.90;;;60.50;;
73084;SDS011;62974;49.460;10.892;2022-09-13T10:45:51;67.57;;;64.93;;
73084;SDS011;62974;49.460;10.892;2022-09-13T10:48:19;62.80;;;60.00;;
73084;SDS011;62974;49.460;10.892;2022-09-13T10:50:59;65.73;;;63.23;;
73084;SDS011;62974;49.460;10.892;2022-09-13T10:53:31;63.50;;;60.90;;
73084;SDS011;62974;49.460;10.892;2022-09-13T10:56:01;61.73;;;59.23;;
73084;SDS011;62974;49.460;10.892;2022-09-13T10:58:30;65.20;;;62.63;;
73084;SDS011;62974;49.460;10.892;2022-09-13T11:07:27;69.27;;;66.40;;
73084;SDS011;62974;49.460;10.892;2022-09-13T11:10:07;72.27;;;68.13;;
73084;SDS011;62974;49.460;10.892;2022-09-13T11:12:42;63.27;;;60.67;;
73084;SDS011;62974;49.460;10.892;2022-09-13T11:15:20;63.87;;;61.37;;
73084;SDS011;62974;49.460;10.892;2022-09-13T11:18:10;63.10;;;60.40;;
73084;SDS011;62974;49.460;10.892;2022-09-13T11:21:05;66.23;;;63.63;;
73084;SDS011;62974;49.460;10.892;2022-09-13T11:23:58;67.13;;;63.83;;
73084;SDS011;62974;49.460;10.892;2022-09-13T11:26:50;62.73;;;60.10;;
73084;SDS011;62974;49.460;10.892;2022-09-13T11:29:28;66.73;;;63.83;;
73084;SDS011;62974;49.460;10.892;2022-09-13T11:32:13;70.30;;;67.27;;
73084;SDS011;62974;49.460;10.892;2022-09-13T11:34:53;64.70;;;61.90;;
73084;SDS011;62974;49.460;10.892;2022-09-13T11:37:43;66.93;;;64.23;;
73084;SDS011;62974;49.460;10.892;2022-09-13T11:40:27;65.60;;;62.90;;
73084;SDS011;62974;49.460;10.892;2022-09-13T11:43:04;62.60;;;59.90;;
73084;SDS011;62974;49.460;10.892;2022-09-13T11:45:46;63.87;;;61.47;;
73084;SDS011;62974;49.460;10.892;2022-09-13T11:48:28;62.57;;;60.10;;
73084;SDS011;62974;49.460;10.892;2022-09-13T11:51:16;64.43;;;61.43;;
73084;SDS011;62974;49.460;10.892;2022-09-13T11:53:55;63.20;;;60.60;;
73084;SDS011;62974;49.460;10.892;2022-09-13T11:56:36;65.13;;;62.43;;
73084;SDS011;62974;49.460;10.892;2022-09-13T11:59:11;65.53;;;63.00;;
73084;SDS011;62974;49.460;10.892;2022-09-13T12:01:46;61.47;;;59.03;;
73084;SDS011;62974;49.460;10.892;2022-09-13T12:04:24;63.33;;;60.83;;
73084;SDS011;62974;49.460;10.892;2022-09-13T12:07:00;61.67;;;59.27;;
73084;SDS011;62974;49.460;10.892;2022-09-13T12:09:39;63.10;;;60.60;;
73084;SDS011;62974;49.460;10.892;2022-09-13T12:12:15;63.83;;;61.23;;
73084;SDS011;62974;49.460;10.892;2022-09-13T12:14:44;63.60;;;60.80;;
73084;SDS011;62974;49.460;10.892;2022-09-13T12:17:22;64.60;;;61.90;;
73084;SDS011;62974;49.460;10.892;2022-09-13T12:19:58;64.13;;;61.53;;
73084;SDS011;62974;49.460;10.892;2022-09-13T12:22:31;67.83;;;65.13;;
73084;SDS011;62974;49.460;10.892;2022-09-13T12:25:03;67.90;;;65.13;;
73084;SDS011;62974;49.460;10.892;2022-09-13T12:27:41;65.33;;;62.63;;
73084;SDS011;62974;49.460;10.892;2022-09-13T12:30:15;70.47;;;67.30;;
73084;SDS011;62974;49.460;10.892;2022-09-13T12:32:50;68.37;;;65.67;;
73084;SDS011;62974;49.460;10.892;2022-09-13T12:35:25;68.10;;;65.33;;
73084;SDS011;62974;49.460;10.892;2022-09-13T12:38:03;68.17;;;65.53;;
73084;SDS011;62974;49.460;10.892;2022-09-13T12:40:50;65.33;;;62.63;;
73084;SDS011;62974;49.460;10.892;2022-09-13T12:43:41;68.80;;;65.90;;
73084;SDS011;62974;49.460;10.892;2022-09-13T12:46:34;64.87;;;62.07;;
73084;SDS011;62974;49.460;10.892;2022-09-13T12:49:27;62.63;;;60.03;;
73084;SDS011;62974;49.460;10.892;2022-09-13T12:52:10;61.07;;;58.70;;
73084;SDS011;62974;49.460;10.892;2022-09-13T12:55:11;63.73;;;61.17;;
73084;SDS011;62974;49.460;10.892;2022-09-13T13:01:10;65.73;;;63.03;;
73084;SDS011;62974;49.460;10.892;2022-09-13T13:03:46;63.00;;;60.40;;
73084;SDS011;62974;49.460;10.892;2022-09-13T13:06:27;65.90;;;63.27;;
73084;SDS011;62974;49.460;10.892;2022-09-13T13:09:01;66.03;;;63.33;;
73084;SDS011;62974;49.460;10.892;2022-09-13T13:11:42;64.33;;;61.57;;
73084;SDS011;62974;49.460;10.892;2022-09-13T13:14:42;61.83;;;59.33;;
73084;SDS011;62974;49.460;10.892;2022-09-13T13:26:05;64.20;;;61.50;;
73084;SDS011;62974;49.460;10.892;2022-09-13T13:31:42;61.07;;;58.67;;
73084;SDS011;62974;49.460;10.892;2022-09-13T13:34:27;64.10;;;61.30;;
73084;SDS011;62974;49.460;10.892;2022-09-13T13:37:00;62.67;;;59.97;;
73084;SDS011;62974;49.460;10.892;2022-09-13T13:39:37;64.60;;;62.00;;
73084;SDS011;62974;49.460;10.892;2022-09-13T14:30:32;62.10;;;59.50;;
73084;SDS011;62974;49.460;10.892;2022-09-13T14:52:39;62.97;;;60.60;;
73084;SDS011;62974;49.460;10.892;2022-09-13T14:56:15;63.50;;;61.00;;
73084;SDS011;62974;49.460;10.892;2022-09-13T15:40:57;65.00;;;62.20;;
73084;SDS011;62974;49.460;10.892;2022-09-13T15:51:30;63.87;;;60.80;;
73084;SDS011;62974;49.460;10.892;2022-09-13T15:55:30;64.97;;;62.47;;
73084;SDS011;62974;49.460;10.892;2022-09-13T15:59:03;72.00;;;69.13;;
73084;SDS011;62974;49.460;10.892;2022-09-13T16:02:33;64.03;;;61.30;;
73084;SDS011;62974;49.460;10.892;2022-09-13T16:21:43;60.93;;;58.43;;
73084;SDS011;62974;49.460;10.892;2022-09-13T17:03:13;61.30;;;58.80;;
73084;SDS011;62974;49.460;10.892;2022-09-13T17:22:19;66.03;;;62.80;;
73084;SDS011;62974;49.460;10.892;2022-09-13T17:25:55;75.47;;;71.33;;
73084;SDS011;62974;49.460;10.892;2022-09-13T17:29:21;64.40;;;61.63;;
73084;SDS011;62974;49.460;10.892;2022-09-13T18:08:51;66.93;;;64.07;;
73084;SDS011;62974;49.460;10.892;2022-09-13T18:29:01;64.37;;;61.67;;
73084;SDS011;62974;49.460;10.892;2022-09-13T18:34:09;65.10;;;62.30;;
73084;SDS011;62974;49.460;10.892;2022-09-13T19:53:15;68.07;;;64.93;;
73084;SDS011;62974;49.460;10.892;2022-09-13T20:14:55;69.17;;;66.10;;
73084;SDS011;62974;49.460;10.892;2022-09-13T20:24:10;70.47;;;67.47;;
73084;SDS011;62974;49.460;10.892;2022-09-13T22:21:10;73.33;;;69.53;;
73084;SDS011;62974;49.460;10.892;2022-09-13T23:58:23;69.20;;;66.10;;
